Weather at Stonehill Farm Airstrip

Public forecast

Using degrees Celsius for public forecast. Weather courtesy of forecast.io.

Closest aviation weather report (METAR) to Stonehill Farm Airstrip

Closest report is Glasgow Prestwick Airport, 25.3 nm (46.9 km) W.

2024/05/24 19:20 (retrieved 24 minutes ago)

EGPK 241920Z 25007KT 9999 SCT013 BKN025 12/10 Q1018

Closest aviation forecast (TAF) to Stonehill Farm Airstrip

Closest forecast is Glasgow Prestwick Airport, 25.3 nm (46.9 km) W.

2024/05/24 18:00 (retrieved 2 hours ago)

TAF EGPK 241655Z 2418/2518 25004KT 9999 SCT012 BKN025 TEMPO 2418/2509 7000 -RA BKN012 PROB30 TEMPO 2418/2502 4000 RADZ BKN006 BECMG 2501/2504 13010KT